sensor_id;sensor_type;location;lat;lon;timestamp;temperature;humidity
10883;DHT22;5494;51.796;10.952;2023-06-24T00:00:56;14.90;99.90
10883;DHT22;5494;51.796;10.952;2023-06-24T00:03:24;15.00;99.90
10883;DHT22;5494;51.796;10.952;2023-06-24T00:05:57;14.90;99.90
10883;DHT22;5494;51.796;10.952;2023-06-24T00:08:30;14.90;99.90
10883;DHT22;5494;51.796;10.952;2023-06-24T00:11:01;14.80;99.90
10883;DHT22;5494;51.796;10.952;2023-06-24T00:13:29;14.70;99.90
10883;DHT22;5494;51.796;10.952;2023-06-24T00:15:57;14.70;99.90
10883;DHT22;5494;51.796;10.952;2023-06-24T00:18:25;14.60;99.90
10883;DHT22;5494;51.796;10.952;2023-06-24T00:20:57;14.60;99.90
10883;DHT22;5494;51.796;10.952;2023-06-24T00:23:25;14.60;99.90
10883;DHT22;5494;51.796;10.952;2023-06-24T00:25:54;14.50;99.90
10883;DHT22;5494;51.796;10.952;2023-06-24T00:28:22;14.50;99.90
10883;DHT22;5494;51.796;10.952;2023-06-24T00:30:51;14.50;99.90
10883;DHT22;5494;51.796;10.952;2023-06-24T00:33:20;14.50;99.90
10883;DHT22;5494;51.796;10.952;2023-06-24T00:35:49;14.40;99.90
10883;DHT22;5494;51.796;10.952;2023-06-24T00:38:19;14.50;99.90
10883;DHT22;5494;51.796;10.952;2023-06-24T00:40:47;14.50;99.90
10883;DHT22;5494;51.796;10.952;2023-06-24T00:43:15;14.50;99.90
10883;DHT22;5494;51.796;10.952;2023-06-24T00:45:44;14.50;99.90
10883;DHT22;5494;51.796;10.952;2023-06-24T00:48:15;14.40;99.90
10883;DHT22;5494;51.796;10.952;2023-06-24T00:50:44;14.40;99.90
10883;DHT22;5494;51.796;10.952;2023-06-24T00:53:12;14.30;99.90
10883;DHT22;5494;51.796;10.952;2023-06-24T00:55:41;14.20;99.90
10883;DHT22;5494;51.796;10.952;2023-06-24T00:58:13;14.10;99.90
10883;DHT22;5494;51.796;10.952;2023-06-24T01:00:44;14.10;99.90
10883;DHT22;5494;51.796;10.952;2023-06-24T01:03:13;14.10;99.90
10883;DHT22;5494;51.796;10.952;2023-06-24T01:05:43;14.10;99.90
10883;DHT22;5494;51.796;10.952;2023-06-24T01:08:12;14.20;99.90
10883;DHT22;5494;51.796;10.952;2023-06-24T01:10:46;14.10;99.90
10883;DHT22;5494;51.796;10.952;2023-06-24T01:13:14;14.00;99.90
10883;DHT22;5494;51.796;10.952;2023-06-24T01:15:42;14.00;99.90
10883;DHT22;5494;51.796;10.952;2023-06-24T01:18:13;14.00;99.90
10883;DHT22;5494;51.796;10.952;2023-06-24T01:20:52;14.00;99.90
10883;DHT22;5494;51.796;10.952;2023-06-24T01:24:01;13.90;99.90
10883;DHT22;5494;51.796;10.952;2023-06-24T01:27:09;13.80;99.90
10883;DHT22;5494;51.796;10.952;2023-06-24T01:30:12;13.70;99.90
10883;DHT22;5494;51.796;10.952;2023-06-24T01:33:02;13.70;99.90
10883;DHT22;5494;51.796;10.952;2023-06-24T01:35:36;13.70;99.90
10883;DHT22;5494;51.796;10.952;2023-06-24T01:38:08;13.60;99.90
10883;DHT22;5494;51.796;10.952;2023-06-24T01:40:44;13.60;99.90
10883;DHT22;5494;51.796;10.952;2023-06-24T01:43:14;13.50;99.90
10883;DHT22;5494;51.796;10.952;2023-06-24T01:45:47;13.50;99.90
10883;DHT22;5494;51.796;10.952;2023-06-24T01:48:24;13.40;99.90
10883;DHT22;5494;51.796;10.952;2023-06-24T01:50:58;13.40;99.90
10883;DHT22;5494;51.796;10.952;2023-06-24T01:53:29;13.30;99.90
10883;DHT22;5494;51.796;10.952;2023-06-24T01:56:02;13.30;99.90
10883;DHT22;5494;51.796;10.952;2023-06-24T01:58:34;13.30;99.90
10883;DHT22;5494;51.796;10.952;2023-06-24T02:01:04;13.30;99.90
10883;DHT22;5494;51.796;10.952;2023-06-24T02:03:38;13.20;99.90
10883;DHT22;5494;51.796;10.952;2023-06-24T02:06:09;13.10;99.90
10883;DHT22;5494;51.796;10.952;2023-06-24T02:08:40;13.20;99.90
10883;DHT22;5494;51.796;10.952;2023-06-24T02:11:14;13.20;99.90
10883;DHT22;5494;51.796;10.952;2023-06-24T02:13:44;13.10;99.90
10883;DHT22;5494;51.796;10.952;2023-06-24T02:16:16;13.20;99.90
10883;DHT22;5494;51.796;10.952;2023-06-24T02:18:46;13.10;99.90
10883;DHT22;5494;51.796;10.952;2023-06-24T02:21:17;13.10;99.90
10883;DHT22;5494;51.796;10.952;2023-06-24T02:23:47;13.10;99.90
10883;DHT22;5494;51.796;10.952;2023-06-24T02:26:17;13.20;99.90
10883;DHT22;5494;51.796;10.952;2023-06-24T02:28:46;13.10;99.90
10883;DHT22;5494;51.796;10.952;2023-06-24T02:31:16;13.00;99.90
10883;DHT22;5494;51.796;10.952;2023-06-24T02:33:46;13.00;99.90
10883;DHT22;5494;51.796;10.952;2023-06-24T02:36:14;13.00;99.90
10883;DHT22;5494;51.796;10.952;2023-06-24T02:38:42;12.90;99.90
10883;DHT22;5494;51.796;10.952;2023-06-24T02:41:11;12.90;99.90
10883;DHT22;5494;51.796;10.952;2023-06-24T02:43:41;12.90;99.90
10883;DHT22;5494;51.796;10.952;2023-06-24T02:46:10;12.90;99.90
10883;DHT22;5494;51.796;10.952;2023-06-24T02:48:43;12.90;99.90
10883;DHT22;5494;51.796;10.952;2023-06-24T02:51:16;12.90;99.90
10883;DHT22;5494;51.796;10.952;2023-06-24T02:53:45;12.90;99.90
10883;DHT22;5494;51.796;10.952;2023-06-24T02:56:15;12.90;99.90
10883;DHT22;5494;51.796;10.952;2023-06-24T02:58:48;13.00;99.90
10883;DHT22;5494;51.796;10.952;2023-06-24T03:01:22;13.00;99.90
10883;DHT22;5494;51.796;10.952;2023-06-24T03:03:56;13.00;99.90
10883;DHT22;5494;51.796;10.952;2023-06-24T03:06:25;13.00;99.90
10883;DHT22;5494;51.796;10.952;2023-06-24T03:08:59;13.00;99.90
10883;DHT22;5494;51.796;10.952;2023-06-24T03:11:31;13.20;99.90
10883;DHT22;5494;51.796;10.952;2023-06-24T03:13:59;13.20;99.90
10883;DHT22;5494;51.796;10.952;2023-06-24T03:16:35;13.30;99.90
10883;DHT22;5494;51.796;10.952;2023-06-24T03:19:12;13.20;99.90
10883;DHT22;5494;51.796;10.952;2023-06-24T03:21:41;13.30;99.90
10883;DHT22;5494;51.796;10.952;2023-06-24T03:24:12;13.30;99.90
10883;DHT22;5494;51.796;10.952;2023-06-24T03:26:42;13.40;99.90
10883;DHT22;5494;51.796;10.952;2023-06-24T03:29:13;13.50;99.90
10883;DHT22;5494;51.796;10.952;2023-06-24T03:31:50;13.70;99.90
10883;DHT22;5494;51.796;10.952;2023-06-24T03:34:23;13.70;99.90
10883;DHT22;5494;51.796;10.952;2023-06-24T03:36:52;13.90;99.90
10883;DHT22;5494;51.796;10.952;2023-06-24T03:39:22;14.10;99.90
10883;DHT22;5494;51.796;10.952;2023-06-24T03:41:50;14.30;99.90
10883;DHT22;5494;51.796;10.952;2023-06-24T03:44:18;14.40;99.90
10883;DHT22;5494;51.796;10.952;2023-06-24T03:46:46;14.60;99.90
10883;DHT22;5494;51.796;10.952;2023-06-24T03:49:15;14.80;99.90
10883;DHT22;5494;51.796;10.952;2023-06-24T03:51:45;15.10;99.90
10883;DHT22;5494;51.796;10.952;2023-06-24T03:54:13;15.30;99.90
10883;DHT22;5494;51.796;10.952;2023-06-24T03:56:41;15.50;99.90
10883;DHT22;5494;51.796;10.952;2023-06-24T03:59:09;15.70;99.90
10883;DHT22;5494;51.796;10.952;2023-06-24T04:01:39;15.90;99.90
10883;DHT22;5494;51.796;10.952;2023-06-24T04:04:08;16.30;99.90
10883;DHT22;5494;51.796;10.952;2023-06-24T04:06:36;16.50;99.90
10883;DHT22;5494;51.796;10.952;2023-06-24T04:09:05;16.80;99.90
10883;DHT22;5494;51.796;10.952;2023-06-24T04:11:35;17.20;99.90
10883;DHT22;5494;51.796;10.952;2023-06-24T04:14:03;17.70;99.90
10883;DHT22;5494;51.796;10.952;2023-06-24T04:16:33;18.10;99.90
10883;DHT22;5494;51.796;10.952;2023-06-24T04:19:01;18.90;99.90
10883;DHT22;5494;51.796;10.952;2023-06-24T04:21:30;19.60;99.90
10883;DHT22;5494;51.796;10.952;2023-06-24T04:23:58;20.00;99.90
10883;DHT22;5494;51.796;10.952;2023-06-24T04:26:28;20.40;99.90
10883;DHT22;5494;51.796;10.952;2023-06-24T04:28:56;20.60;99.90
10883;DHT22;5494;51.796;10.952;2023-06-24T04:31:25;21.00;99.90
10883;DHT22;5494;51.796;10.952;2023-06-24T04:33:54;21.10;99.90
10883;DHT22;5494;51.796;10.952;2023-06-24T04:36:23;21.30;99.90
10883;DHT22;5494;51.796;10.952;2023-06-24T04:38:51;21.80;99.90
10883;DHT22;5494;51.796;10.952;2023-06-24T04:41:19;22.10;99.90
10883;DHT22;5494;51.796;10.952;2023-06-24T04:43:49;22.10;99.90
10883;DHT22;5494;51.796;10.952;2023-06-24T04:46:17;22.10;99.90
10883;DHT22;5494;51.796;10.952;2023-06-24T04:48:45;22.10;99.90
10883;DHT22;5494;51.796;10.952;2023-06-24T04:51:13;22.30;99.90
10883;DHT22;5494;51.796;10.952;2023-06-24T04:53:42;22.40;99.90
10883;DHT22;5494;51.796;10.952;2023-06-24T04:56:10;22.50;99.90
10883;DHT22;5494;51.796;10.952;2023-06-24T04:58:38;22.70;99.90
10883;DHT22;5494;51.796;10.952;2023-06-24T05:01:07;22.80;99.90
10883;DHT22;5494;51.796;10.952;2023-06-24T05:03:35;23.40;99.90
10883;DHT22;5494;51.796;10.952;2023-06-24T05:06:03;24.10;99.90
10883;DHT22;5494;51.796;10.952;2023-06-24T05:08:32;24.50;99.90
10883;DHT22;5494;51.796;10.952;2023-06-24T05:11:00;24.90;99.90
10883;DHT22;5494;51.796;10.952;2023-06-24T05:13:28;25.50;99.90
10883;DHT22;5494;51.796;10.952;2023-06-24T05:15:56;26.00;99.90
10883;DHT22;5494;51.796;10.952;2023-06-24T05:18:25;26.50;99.90
10883;DHT22;5494;51.796;10.952;2023-06-24T05:20:53;27.10;99.90
10883;DHT22;5494;51.796;10.952;2023-06-24T05:23:22;27.40;99.90
10883;DHT22;5494;51.796;10.952;2023-06-24T05:25:50;28.10;99.40
10883;DHT22;5494;51.796;10.952;2023-06-24T05:28:18;28.40;97.60
10883;DHT22;5494;51.796;10.952;2023-06-24T05:30:46;28.90;96.10
10883;DHT22;5494;51.796;10.952;2023-06-24T05:33:14;29.40;94.50
10883;DHT22;5494;51.796;10.952;2023-06-24T05:35:44;29.80;92.50
10883;DHT22;5494;51.796;10.952;2023-06-24T05:38:12;29.90;91.40
10883;DHT22;5494;51.796;10.952;2023-06-24T05:40:40;30.10;88.60
10883;DHT22;5494;51.796;10.952;2023-06-24T05:43:08;30.60;85.30
10883;DHT22;5494;51.796;10.952;2023-06-24T05:45:37;30.70;86.20
10883;DHT22;5494;51.796;10.952;2023-06-24T05:48:06;31.20;83.30
10883;DHT22;5494;51.796;10.952;2023-06-24T05:50:34;31.70;77.90
10883;DHT22;5494;51.796;10.952;2023-06-24T05:53:03;32.10;72.70
10883;DHT22;5494;51.796;10.952;2023-06-24T05:55:31;31.80;70.60
10883;DHT22;5494;51.796;10.952;2023-06-24T05:58:00;31.90;69.70
10883;DHT22;5494;51.796;10.952;2023-06-24T06:00:28;32.30;64.50
10883;DHT22;5494;51.796;10.952;2023-06-24T06:02:56;31.50;69.90
10883;DHT22;5494;51.796;10.952;2023-06-24T06:05:24;31.50;71.70
10883;DHT22;5494;51.796;10.952;2023-06-24T06:07:53;31.80;68.90
10883;DHT22;5494;51.796;10.952;2023-06-24T06:10:22;32.60;64.30
10883;DHT22;5494;51.796;10.952;2023-06-24T06:12:50;33.50;58.80
10883;DHT22;5494;51.796;10.952;2023-06-24T06:15:19;33.60;55.90
10883;DHT22;5494;51.796;10.952;2023-06-24T06:17:47;33.60;55.90
10883;DHT22;5494;51.796;10.952;2023-06-24T06:20:15;33.80;53.30
10883;DHT22;5494;51.796;10.952;2023-06-24T06:22:43;34.20;51.30
10883;DHT22;5494;51.796;10.952;2023-06-24T06:25:11;34.50;50.60
10883;DHT22;5494;51.796;10.952;2023-06-24T06:27:41;34.10;50.00
10883;DHT22;5494;51.796;10.952;2023-06-24T06:30:10;34.20;49.70
10883;DHT22;5494;51.796;10.952;2023-06-24T06:32:39;33.80;48.50
10883;DHT22;5494;51.796;10.952;2023-06-24T06:35:07;33.80;50.40
10883;DHT22;5494;51.796;10.952;2023-06-24T06:37:35;33.40;50.70
10883;DHT22;5494;51.796;10.952;2023-06-24T06:40:06;32.10;54.30
10883;DHT22;5494;51.796;10.952;2023-06-24T06:42:35;31.90;55.60
10883;DHT22;5494;51.796;10.952;2023-06-24T06:45:05;32.00;55.50
10883;DHT22;5494;51.796;10.952;2023-06-24T06:47:34;32.50;55.90
10883;DHT22;5494;51.796;10.952;2023-06-24T06:50:03;31.60;57.80
10883;DHT22;5494;51.796;10.952;2023-06-24T06:52:31;31.20;57.70
10883;DHT22;5494;51.796;10.952;2023-06-24T06:54:59;30.70;61.70
10883;DHT22;5494;51.796;10.952;2023-06-24T06:57:27;30.40;62.70
10883;DHT22;5494;51.796;10.952;2023-06-24T06:59:56;30.70;65.00
10883;DHT22;5494;51.796;10.952;2023-06-24T07:02:25;30.30;63.60
10883;DHT22;5494;51.796;10.952;2023-06-24T07:04:53;29.80;68.20
10883;DHT22;5494;51.796;10.952;2023-06-24T07:07:21;29.60;70.60
10883;DHT22;5494;51.796;10.952;2023-06-24T07:09:50;29.20;71.00
10883;DHT22;5494;51.796;10.952;2023-06-24T07:12:18;29.10;75.90
10883;DHT22;5494;51.796;10.952;2023-06-24T07:14:47;28.70;77.10
10883;DHT22;5494;51.796;10.952;2023-06-24T07:17:15;28.20;81.30
10883;DHT22;5494;51.796;10.952;2023-06-24T07:19:44;28.20;80.50
10883;DHT22;5494;51.796;10.952;2023-06-24T07:22:13;27.80;83.40
10883;DHT22;5494;51.796;10.952;2023-06-24T07:24:41;27.20;88.90
10883;DHT22;5494;51.796;10.952;2023-06-24T07:27:09;27.60;92.00
10883;DHT22;5494;51.796;10.952;2023-06-24T07:29:37;28.40;86.00
10883;DHT22;5494;51.796;10.952;2023-06-24T07:32:06;28.60;85.30
10883;DHT22;5494;51.796;10.952;2023-06-24T07:34:35;28.30;80.60
10883;DHT22;5494;51.796;10.952;2023-06-24T07:37:04;27.90;85.40
10883;DHT22;5494;51.796;10.952;2023-06-24T07:39:48;27.80;85.00
10883;DHT22;5494;51.796;10.952;2023-06-24T07:42:16;28.10;83.80
10883;DHT22;5494;51.796;10.952;2023-06-24T07:44:46;28.00;90.50
10883;DHT22;5494;51.796;10.952;2023-06-24T07:47:16;28.40;84.10
10883;DHT22;5494;51.796;10.952;2023-06-24T07:49:45;28.80;83.20
10883;DHT22;5494;51.796;10.952;2023-06-24T07:52:14;29.10;81.20
10883;DHT22;5494;51.796;10.952;2023-06-24T07:54:42;29.10;80.40
10883;DHT22;5494;51.796;10.952;2023-06-24T07:57:11;28.80;80.80
10883;DHT22;5494;51.796;10.952;2023-06-24T07:59:39;27.30;90.00
10883;DHT22;5494;51.796;10.952;2023-06-24T08:02:07;27.30;91.70
10883;DHT22;5494;51.796;10.952;2023-06-24T08:04:35;27.50;91.30
10883;DHT22;5494;51.796;10.952;2023-06-24T08:07:03;27.50;88.10
10883;DHT22;5494;51.796;10.952;2023-06-24T08:09:33;27.20;90.20
10883;DHT22;5494;51.796;10.952;2023-06-24T08:12:01;27.30;90.70
10883;DHT22;5494;51.796;10.952;2023-06-24T08:14:29;27.90;90.00
10883;DHT22;5494;51.796;10.952;2023-06-24T08:16:57;28.00;90.20
10883;DHT22;5494;51.796;10.952;2023-06-24T08:19:25;28.30;83.90
10883;DHT22;5494;51.796;10.952;2023-06-24T08:21:53;28.30;84.30
10883;DHT22;5494;51.796;10.952;2023-06-24T08:24:21;28.10;83.20
10883;DHT22;5494;51.796;10.952;2023-06-24T08:26:50;27.60;85.60
10883;DHT22;5494;51.796;10.952;2023-06-24T08:29:19;27.50;87.00
10883;DHT22;5494;51.796;10.952;2023-06-24T08:31:47;27.00;90.80
10883;DHT22;5494;51.796;10.952;2023-06-24T08:34:15;27.60;90.10
10883;DHT22;5494;51.796;10.952;2023-06-24T08:36:44;27.90;82.00
10883;DHT22;5494;51.796;10.952;2023-06-24T08:39:12;27.50;80.20
10883;DHT22;5494;51.796;10.952;2023-06-24T08:41:40;27.70;86.00
10883;DHT22;5494;51.796;10.952;2023-06-24T08:44:14;28.10;81.80
10883;DHT22;5494;51.796;10.952;2023-06-24T08:46:43;28.00;81.00
10883;DHT22;5494;51.796;10.952;2023-06-24T08:49:17;27.50;82.60
10883;DHT22;5494;51.796;10.952;2023-06-24T08:52:00;27.00;85.60
10883;DHT22;5494;51.796;10.952;2023-06-24T08:54:34;27.40;81.70
10883;DHT22;5494;51.796;10.952;2023-06-24T08:57:03;27.00;84.90
10883;DHT22;5494;51.796;10.952;2023-06-24T08:59:37;27.50;87.30
10883;DHT22;5494;51.796;10.952;2023-06-24T09:02:05;28.00;78.80
10883;DHT22;5494;51.796;10.952;2023-06-24T09:04:34;27.90;76.60
10883;DHT22;5494;51.796;10.952;2023-06-24T09:07:02;27.70;78.00
10883;DHT22;5494;51.796;10.952;2023-06-24T09:09:42;27.70;73.00
10883;DHT22;5494;51.796;10.952;2023-06-24T09:12:14;27.70;75.50
10883;DHT22;5494;51.796;10.952;2023-06-24T09:14:48;28.20;75.50
10883;DHT22;5494;51.796;10.952;2023-06-24T09:17:17;28.50;69.00
10883;DHT22;5494;51.796;10.952;2023-06-24T09:19:49;28.80;63.50
10883;DHT22;5494;51.796;10.952;2023-06-24T09:22:17;28.60;58.80
10883;DHT22;5494;51.796;10.952;2023-06-24T09:24:47;28.80;62.10
10883;DHT22;5494;51.796;10.952;2023-06-24T09:27:17;29.00;59.70
10883;DHT22;5494;51.796;10.952;2023-06-24T09:29:48;29.10;56.30
10883;DHT22;5494;51.796;10.952;2023-06-24T09:32:15;29.20;54.90
10883;DHT22;5494;51.796;10.952;2023-06-24T09:34:44;29.00;55.70
10883;DHT22;5494;51.796;10.952;2023-06-24T09:37:21;28.30;52.80
10883;DHT22;5494;51.796;10.952;2023-06-24T09:39:49;28.20;57.30
10883;DHT22;5494;51.796;10.952;2023-06-24T09:42:20;28.40;57.70
10883;DHT22;5494;51.796;10.952;2023-06-24T09:44:54;28.10;58.30
10883;DHT22;5494;51.796;10.952;2023-06-24T09:47:23;28.20;58.80
10883;DHT22;5494;51.796;10.952;2023-06-24T09:49:53;28.40;56.00
10883;DHT22;5494;51.796;10.952;2023-06-24T09:52:22;28.60;55.50
10883;DHT22;5494;51.796;10.952;2023-06-24T09:54:53;29.00;59.60
10883;DHT22;5494;51.796;10.952;2023-06-24T09:57:27;28.30;57.70
10883;DHT22;5494;51.796;10.952;2023-06-24T10:00:00;28.40;57.50
10883;DHT22;5494;51.796;10.952;2023-06-24T10:02:32;28.70;57.60
10883;DHT22;5494;51.796;10.952;2023-06-24T10:05:01;28.80;57.00
10883;DHT22;5494;51.796;10.952;2023-06-24T10:07:30;28.90;58.70
10883;DHT22;5494;51.796;10.952;2023-06-24T10:10:01;29.00;57.60
10883;DHT22;5494;51.796;10.952;2023-06-24T10:12:33;28.50;56.60
10883;DHT22;5494;51.796;10.952;2023-06-24T10:15:05;28.00;59.20
10883;DHT22;5494;51.796;10.952;2023-06-24T10:17:33;27.40;60.90
10883;DHT22;5494;51.796;10.952;2023-06-24T10:20:06;27.60;64.30
10883;DHT22;5494;51.796;10.952;2023-06-24T10:22:34;28.00;60.60
10883;DHT22;5494;51.796;10.952;2023-06-24T10:25:05;28.30;57.00
10883;DHT22;5494;51.796;10.952;2023-06-24T10:27:39;28.30;54.80
10883;DHT22;5494;51.796;10.952;2023-06-24T10:30:17;28.30;58.50
10883;DHT22;5494;51.796;10.952;2023-06-24T10:32:51;27.70;59.90
10883;DHT22;5494;51.796;10.952;2023-06-24T10:35:25;27.40;60.70
10883;DHT22;5494;51.796;10.952;2023-06-24T10:37:57;26.60;66.30
10883;DHT22;5494;51.796;10.952;2023-06-24T10:40:38;26.70;67.30
10883;DHT22;5494;51.796;10.952;2023-06-24T10:43:26;26.70;68.30
10883;DHT22;5494;51.796;10.952;2023-06-24T10:45:58;26.80;71.70
10883;DHT22;5494;51.796;10.952;2023-06-24T10:48:26;26.70;70.30
10883;DHT22;5494;51.796;10.952;2023-06-24T10:50:54;26.60;73.30
10883;DHT22;5494;51.796;10.952;2023-06-24T10:53:22;26.50;77.10
10883;DHT22;5494;51.796;10.952;2023-06-24T10:55:50;26.50;77.30
10883;DHT22;5494;51.796;10.952;2023-06-24T10:58:19;26.60;75.70
10883;DHT22;5494;51.796;10.952;2023-06-24T11:00:47;26.70;75.20
10883;DHT22;5494;51.796;10.952;2023-06-24T11:03:18;26.40;73.30
10883;DHT22;5494;51.796;10.952;2023-06-24T11:05:48;25.70;78.40
10883;DHT22;5494;51.796;10.952;2023-06-24T11:08:16;25.60;78.00
10883;DHT22;5494;51.796;10.952;2023-06-24T11:10:46;25.80;79.50
10883;DHT22;5494;51.796;10.952;2023-06-24T11:13:15;25.90;81.10
10883;DHT22;5494;51.796;10.952;2023-06-24T11:15:47;26.00;80.70
10883;DHT22;5494;51.796;10.952;2023-06-24T11:18:17;25.90;80.60
10883;DHT22;5494;51.796;10.952;2023-06-24T11:20:45;26.00;83.00
10883;DHT22;5494;51.796;10.952;2023-06-24T11:23:13;26.10;80.60
10883;DHT22;5494;51.796;10.952;2023-06-24T11:25:42;26.10;82.90
10883;DHT22;5494;51.796;10.952;2023-06-24T11:28:15;25.80;82.40
10883;DHT22;5494;51.796;10.952;2023-06-24T11:30:48;25.80;85.20
10883;DHT22;5494;51.796;10.952;2023-06-24T11:33:27;25.70;86.40
10883;DHT22;5494;51.796;10.952;2023-06-24T11:35:56;25.50;86.20
10883;DHT22;5494;51.796;10.952;2023-06-24T11:38:24;25.40;89.60
10883;DHT22;5494;51.796;10.952;2023-06-24T11:40:58;25.40;90.50
10883;DHT22;5494;51.796;10.952;2023-06-24T11:43:26;25.50;88.30
10883;DHT22;5494;51.796;10.952;2023-06-24T11:45:55;25.50;87.30
10883;DHT22;5494;51.796;10.952;2023-06-24T11:48:28;25.50;86.10
10883;DHT22;5494;51.796;10.952;2023-06-24T11:50:56;25.40;90.10
10883;DHT22;5494;51.796;10.952;2023-06-24T11:53:29;25.60;89.90
10883;DHT22;5494;51.796;10.952;2023-06-24T11:55:58;25.30;91.50
10883;DHT22;5494;51.796;10.952;2023-06-24T11:58:28;25.10;92.70
10883;DHT22;5494;51.796;10.952;2023-06-24T12:00:58;25.20;91.60
10883;DHT22;5494;51.796;10.952;2023-06-24T12:03:29;25.30;90.50
10883;DHT22;5494;51.796;10.952;2023-06-24T12:05:59;25.30;90.80
10883;DHT22;5494;51.796;10.952;2023-06-24T12:08:27;25.30;90.00
10883;DHT22;5494;51.796;10.952;2023-06-24T12:11:15;25.20;88.00
10883;DHT22;5494;51.796;10.952;2023-06-24T12:13:43;24.80;91.50
10883;DHT22;5494;51.796;10.952;2023-06-24T12:16:11;24.80;92.30
10883;DHT22;5494;51.796;10.952;2023-06-24T12:18:41;24.80;93.90
10883;DHT22;5494;51.796;10.952;2023-06-24T12:21:09;24.70;95.00
10883;DHT22;5494;51.796;10.952;2023-06-24T12:23:37;24.60;93.70
10883;DHT22;5494;51.796;10.952;2023-06-24T12:26:05;24.50;95.10
10883;DHT22;5494;51.796;10.952;2023-06-24T12:28:33;24.30;96.60
10883;DHT22;5494;51.796;10.952;2023-06-24T12:31:01;24.30;96.00
10883;DHT22;5494;51.796;10.952;2023-06-24T12:33:29;24.30;98.40
10883;DHT22;5494;51.796;10.952;2023-06-24T12:35:59;24.20;97.10
10883;DHT22;5494;51.796;10.952;2023-06-24T12:38:27;24.10;99.30
10883;DHT22;5494;51.796;10.952;2023-06-24T12:40:56;24.10;99.90
10883;DHT22;5494;51.796;10.952;2023-06-24T12:43:24;24.40;98.20
10883;DHT22;5494;51.796;10.952;2023-06-24T12:45:52;24.40;98.10
10883;DHT22;5494;51.796;10.952;2023-06-24T12:48:22;24.40;99.20
10883;DHT22;5494;51.796;10.952;2023-06-24T12:50:50;24.60;98.50
10883;DHT22;5494;51.796;10.952;2023-06-24T12:53:21;24.60;99.10
10883;DHT22;5494;51.796;10.952;2023-06-24T12:55:50;24.70;99.50
10883;DHT22;5494;51.796;10.952;2023-06-24T12:58:19;24.80;98.10
10883;DHT22;5494;51.796;10.952;2023-06-24T13:00:49;24.80;98.80
10883;DHT22;5494;51.796;10.952;2023-06-24T13:03:17;24.50;99.60
10883;DHT22;5494;51.796;10.952;2023-06-24T13:05:46;24.60;99.90
10883;DHT22;5494;51.796;10.952;2023-06-24T13:08:14;24.80;99.90
10883;DHT22;5494;51.796;10.952;2023-06-24T13:10:43;24.80;99.90
10883;DHT22;5494;51.796;10.952;2023-06-24T13:13:11;25.00;99.90
10883;DHT22;5494;51.796;10.952;2023-06-24T13:15:40;25.00;99.50
10883;DHT22;5494;51.796;10.952;2023-06-24T13:18:08;24.90;99.90
10883;DHT22;5494;51.796;10.952;2023-06-24T13:20:36;24.80;99.70
10883;DHT22;5494;51.796;10.952;2023-06-24T13:23:04;24.80;99.40
10883;DHT22;5494;51.796;10.952;2023-06-24T13:25:32;24.70;99.90
10883;DHT22;5494;51.796;10.952;2023-06-24T13:28:03;24.80;99.90
10883;DHT22;5494;51.796;10.952;2023-06-24T13:30:31;25.10;99.70
10883;DHT22;5494;51.796;10.952;2023-06-24T13:32:59;25.20;98.50
10883;DHT22;5494;51.796;10.952;2023-06-24T13:35:27;25.30;99.20
10883;DHT22;5494;51.796;10.952;2023-06-24T13:37:55;25.40;99.80
10883;DHT22;5494;51.796;10.952;2023-06-24T13:40:25;25.50;99.30
10883;DHT22;5494;51.796;10.952;2023-06-24T13:42:53;25.50;98.60
10883;DHT22;5494;51.796;10.952;2023-06-24T13:45:22;25.30;99.90
10883;DHT22;5494;51.796;10.952;2023-06-24T13:47:50;25.20;99.90
10883;DHT22;5494;51.796;10.952;2023-06-24T13:50:18;25.30;99.90
10883;DHT22;5494;51.796;10.952;2023-06-24T13:52:46;25.30;98.60
10883;DHT22;5494;51.796;10.952;2023-06-24T13:55:15;25.30;99.50
10883;DHT22;5494;51.796;10.952;2023-06-24T13:57:43;25.30;99.50
10883;DHT22;5494;51.796;10.952;2023-06-24T14:00:12;25.40;99.40
10883;DHT22;5494;51.796;10.952;2023-06-24T14:02:43;25.30;97.50
10883;DHT22;5494;51.796;10.952;2023-06-24T14:05:11;25.20;98.50
10883;DHT22;5494;51.796;10.952;2023-06-24T14:07:39;25.10;99.90
10883;DHT22;5494;51.796;10.952;2023-06-24T14:10:08;25.10;99.90
10883;DHT22;5494;51.796;10.952;2023-06-24T14:12:36;25.00;98.90
10883;DHT22;5494;51.796;10.952;2023-06-24T14:15:05;25.20;99.40
10883;DHT22;5494;51.796;10.952;2023-06-24T14:17:34;25.30;99.30
10883;DHT22;5494;51.796;10.952;2023-06-24T14:20:04;25.30;99.90
10883;DHT22;5494;51.796;10.952;2023-06-24T14:22:33;25.30;96.50
10883;DHT22;5494;51.796;10.952;2023-06-24T14:25:01;25.10;97.20
10883;DHT22;5494;51.796;10.952;2023-06-24T14:27:29;25.10;98.40
10883;DHT22;5494;51.796;10.952;2023-06-24T14:29:58;25.20;98.70
10883;DHT22;5494;51.796;10.952;2023-06-24T14:32:26;25.40;97.80
10883;DHT22;5494;51.796;10.952;2023-06-24T14:34:54;25.30;97.20
10883;DHT22;5494;51.796;10.952;2023-06-24T14:37:24;25.00;98.10
10883;DHT22;5494;51.796;10.952;2023-06-24T14:39:52;24.90;97.10
10883;DHT22;5494;51.796;10.952;2023-06-24T14:42:20;24.90;97.80
10883;DHT22;5494;51.796;10.952;2023-06-24T14:44:48;25.00;98.40
10883;DHT22;5494;51.796;10.952;2023-06-24T14:47:16;25.20;98.40
10883;DHT22;5494;51.796;10.952;2023-06-24T14:49:44;25.30;97.20
10883;DHT22;5494;51.796;10.952;2023-06-24T14:52:12;25.40;98.90
10883;DHT22;5494;51.796;10.952;2023-06-24T14:54:41;25.60;97.90
10883;DHT22;5494;51.796;10.952;2023-06-24T14:57:10;25.50;97.30
10883;DHT22;5494;51.796;10.952;2023-06-24T14:59:37;25.30;97.20
10883;DHT22;5494;51.796;10.952;2023-06-24T15:02:06;25.10;96.30
10883;DHT22;5494;51.796;10.952;2023-06-24T15:04:35;25.00;98.10
10883;DHT22;5494;51.796;10.952;2023-06-24T15:07:03;25.10;99.30
10883;DHT22;5494;51.796;10.952;2023-06-24T15:09:32;25.30;99.30
10883;DHT22;5494;51.796;10.952;2023-06-24T15:12:06;25.50;97.80
10883;DHT22;5494;51.796;10.952;2023-06-24T15:14:34;25.60;97.10
10883;DHT22;5494;51.796;10.952;2023-06-24T15:17:02;25.50;97.80
10883;DHT22;5494;51.796;10.952;2023-06-24T15:19:30;25.60;98.00
10883;DHT22;5494;51.796;10.952;2023-06-24T15:21:58;25.40;97.40
10883;DHT22;5494;51.796;10.952;2023-06-24T15:24:27;25.30;97.60
10883;DHT22;5494;51.796;10.952;2023-06-24T15:26:56;25.30;98.60
10883;DHT22;5494;51.796;10.952;2023-06-24T15:29:26;25.40;98.50
10883;DHT22;5494;51.796;10.952;2023-06-24T15:31:54;25.30;97.70
10883;DHT22;5494;51.796;10.952;2023-06-24T15:34:22;25.20;98.10
10883;DHT22;5494;51.796;10.952;2023-06-24T15:36:50;25.30;98.20
10883;DHT22;5494;51.796;10.952;2023-06-24T15:39:18;25.30;98.70
10883;DHT22;5494;51.796;10.952;2023-06-24T15:41:47;25.40;99.00
10883;DHT22;5494;51.796;10.952;2023-06-24T15:44:16;25.40;99.50
10883;DHT22;5494;51.796;10.952;2023-06-24T15:46:46;25.50;98.10